sensor_id;sensor_type;location;lat;lon;timestamp;pressure;altitude;pressure_sealevel;temperature;humidity
70916;BME280;58557;50.982;-3.222;2022-08-21T00:01:24;100965.58;;;18.41;55.04
70916;BME280;58557;50.982;-3.222;2022-08-21T00:03:45;100967.17;;;18.41;54.94
70916;BME280;58557;50.982;-3.222;2022-08-21T00:06:10;100967.87;;;18.75;53.89
70916;BME280;58557;50.982;-3.222;2022-08-21T00:08:35;100967.42;;;18.42;54.71
70916;BME280;58557;50.982;-3.222;2022-08-21T00:11:01;100966.29;;;18.55;54.91
70916;BME280;58557;50.982;-3.222;2022-08-21T00:13:31;100963.03;;;17.38;56.61
70916;BME280;58557;50.982;-3.222;2022-08-21T00:15:52;100961.33;;;18.55;54.32
70916;BME280;58557;50.982;-3.222;2022-08-21T00:18:18;100960.70;;;18.68;53.99
70916;BME280;58557;50.982;-3.222;2022-08-21T00:20:45;100957.64;;;19.01;53.00
70916;BME280;58557;50.982;-3.222;2022-08-21T00:23:10;100956.95;;;19.21;52.36
70916;BME280;58557;50.982;-3.222;2022-08-21T00:25:36;100957.47;;;19.24;51.83
70916;BME280;58557;50.982;-3.222;2022-08-21T00:28:00;100953.17;;;19.40;51.83
70916;BME280;58557;50.982;-3.222;2022-08-21T00:30:26;100956.76;;;19.51;51.70
70916;BME280;58557;50.982;-3.222;2022-08-21T00:32:53;100962.25;;;19.10;52.16
70916;BME280;58557;50.982;-3.222;2022-08-21T00:35:23;100963.46;;;18.88;52.60
70916;BME280;58557;50.982;-3.222;2022-08-21T00:37:43;100961.98;;;18.38;53.35
70916;BME280;58557;50.982;-3.222;2022-08-21T00:40:13;100956.98;;;18.89;52.81
70916;BME280;58557;50.982;-3.222;2022-08-21T00:42:33;100956.80;;;18.54;53.29
70916;BME280;58557;50.982;-3.222;2022-08-21T00:45:06;100953.22;;;18.24;54.08
70916;BME280;58557;50.982;-3.222;2022-08-21T00:47:25;100952.76;;;18.89;52.91
70916;BME280;58557;50.982;-3.222;2022-08-21T00:49:51;100941.53;;;19.44;51.71
70916;BME280;58557;50.982;-3.222;2022-08-21T00:52:21;100943.69;;;18.70;53.02
70916;BME280;58557;50.982;-3.222;2022-08-21T00:54:47;100941.66;;;18.47;54.05
70916;BME280;58557;50.982;-3.222;2022-08-21T00:57:13;100938.17;;;19.19;53.10
70916;BME280;58557;50.982;-3.222;2022-08-21T00:59:35;100933.49;;;18.81;52.45
70916;BME280;58557;50.982;-3.222;2022-08-21T01:01:58;100931.95;;;19.02;52.03
70916;BME280;58557;50.982;-3.222;2022-08-21T01:04:24;100937.85;;;18.49;52.51
70916;BME280;58557;50.982;-3.222;2022-08-21T01:06:55;100944.17;;;17.84;54.43
70916;BME280;58557;50.982;-3.222;2022-08-21T01:09:15;100945.37;;;17.67;55.15
70916;BME280;58557;50.982;-3.222;2022-08-21T01:11:41;100948.59;;;18.78;52.67
70916;BME280;58557;50.982;-3.222;2022-08-21T01:14:08;100948.05;;;18.39;53.49
70916;BME280;58557;50.982;-3.222;2022-08-21T01:16:37;100946.50;;;18.73;52.43
70916;BME280;58557;50.982;-3.222;2022-08-21T01:19:02;100944.41;;;17.49;55.77
70916;BME280;58557;50.982;-3.222;2022-08-21T01:21:26;100944.49;;;17.43;55.75
70916;BME280;58557;50.982;-3.222;2022-08-21T01:23:50;100941.33;;;17.35;56.06
70916;BME280;58557;50.982;-3.222;2022-08-21T01:26:16;100941.13;;;18.76;52.83
70916;BME280;58557;50.982;-3.222;2022-08-21T01:28:44;100939.14;;;18.33;53.56
70916;BME280;58557;50.982;-3.222;2022-08-21T01:31:12;100938.10;;;18.65;52.97
70916;BME280;58557;50.982;-3.222;2022-08-21T01:33:33;100938.27;;;18.42;53.31
70916;BME280;58557;50.982;-3.222;2022-08-21T01:35:57;100935.30;;;18.51;53.19
70916;BME280;58557;50.982;-3.222;2022-08-21T01:38:22;100934.79;;;17.44;55.59
70916;BME280;58557;50.982;-3.222;2022-08-21T01:40:48;100932.84;;;17.41;55.30
70916;BME280;58557;50.982;-3.222;2022-08-21T01:43:15;100928.32;;;17.98;54.90
70916;BME280;58557;50.982;-3.222;2022-08-21T01:45:40;100923.58;;;16.95;56.45
70916;BME280;58557;50.982;-3.222;2022-08-21T01:48:10;100923.99;;;17.93;54.12
70916;BME280;58557;50.982;-3.222;2022-08-21T01:50:34;100928.55;;;18.53;52.79
70916;BME280;58557;50.982;-3.222;2022-08-21T01:52:57;100930.96;;;18.59;52.45
70916;BME280;58557;50.982;-3.222;2022-08-21T01:55:23;100925.79;;;17.33;54.99
70916;BME280;58557;50.982;-3.222;2022-08-21T01:57:48;100924.28;;;18.06;54.23
70916;BME280;58557;50.982;-3.222;2022-08-21T02:00:17;100925.23;;;17.30;55.04
70916;BME280;58557;50.982;-3.222;2022-08-21T02:02:40;100923.09;;;18.02;53.57
70916;BME280;58557;50.982;-3.222;2022-08-21T02:05:06;100921.15;;;18.30;52.88
70916;BME280;58557;50.982;-3.222;2022-08-21T02:07:36;100925.64;;;18.40;52.83
70916;BME280;58557;50.982;-3.222;2022-08-21T02:09:56;100923.25;;;18.77;51.84
70916;BME280;58557;50.982;-3.222;2022-08-21T02:12:22;100922.28;;;18.52;52.20
70916;BME280;58557;50.982;-3.222;2022-08-21T02:14:48;100922.86;;;17.67;54.66
70916;BME280;58557;50.982;-3.222;2022-08-21T02:17:14;100919.76;;;16.98;55.88
70916;BME280;58557;50.982;-3.222;2022-08-21T02:19:44;100914.72;;;18.06;53.57
70916;BME280;58557;50.982;-3.222;2022-08-21T02:22:10;100918.34;;;18.31;52.83
70916;BME280;58557;50.982;-3.222;2022-08-21T02:24:31;100913.20;;;18.61;52.16
70916;BME280;58557;50.982;-3.222;2022-08-21T02:26:56;100912.43;;;18.66;52.21
70916;BME280;58557;50.982;-3.222;2022-08-21T02:29:22;100914.21;;;18.51;52.34
70916;BME280;58557;50.982;-3.222;2022-08-21T02:31:48;100911.55;;;18.68;51.92
70916;BME280;58557;50.982;-3.222;2022-08-21T02:34:14;100914.79;;;18.06;53.26
70916;BME280;58557;50.982;-3.222;2022-08-21T02:36:39;100917.08;;;18.24;52.96
70916;BME280;58557;50.982;-3.222;2022-08-21T02:39:10;100914.14;;;18.66;52.16
70916;BME280;58557;50.982;-3.222;2022-08-21T02:41:35;100907.59;;;18.47;53.00
70916;BME280;58557;50.982;-3.222;2022-08-21T02:43:55;100905.94;;;17.92;54.28
70916;BME280;58557;50.982;-3.222;2022-08-21T02:46:21;100902.47;;;18.15;53.78
70916;BME280;58557;50.982;-3.222;2022-08-21T02:48:52;100898.47;;;18.34;53.47
70916;BME280;58557;50.982;-3.222;2022-08-21T02:51:15;100890.74;;;18.38;53.86
70916;BME280;58557;50.982;-3.222;2022-08-21T02:53:43;100887.10;;;18.13;53.68
70916;BME280;58557;50.982;-3.222;2022-08-21T02:56:06;100889.16;;;18.08;53.57
70916;BME280;58557;50.982;-3.222;2022-08-21T02:58:31;100884.73;;;17.97;54.02
70916;BME280;58557;50.982;-3.222;2022-08-21T03:01:00;100883.68;;;18.17;54.06
70916;BME280;58557;50.982;-3.222;2022-08-21T03:03:26;100890.48;;;18.38;53.78
70916;BME280;58557;50.982;-3.222;2022-08-21T03:05:51;100899.46;;;17.72;54.80
70916;BME280;58557;50.982;-3.222;2022-08-21T03:08:18;100904.43;;;17.62;55.55
70916;BME280;58557;50.982;-3.222;2022-08-21T03:10:39;100899.67;;;16.88;57.60
70916;BME280;58557;50.982;-3.222;2022-08-21T03:13:08;100900.22;;;17.71;55.39
70916;BME280;58557;50.982;-3.222;2022-08-21T03:15:28;100896.67;;;17.96;54.86
70916;BME280;58557;50.982;-3.222;2022-08-21T03:17:54;100896.18;;;18.11;54.52
70916;BME280;58557;50.982;-3.222;2022-08-21T03:20:27;100891.84;;;18.13;54.40
70916;BME280;58557;50.982;-3.222;2022-08-21T03:22:45;100892.59;;;18.02;54.25
70916;BME280;58557;50.982;-3.222;2022-08-21T03:25:16;100894.47;;;17.80;54.12
70916;BME280;58557;50.982;-3.222;2022-08-21T03:27:38;100897.65;;;18.67;53.26
70916;BME280;58557;50.982;-3.222;2022-08-21T03:30:03;100895.87;;;18.46;53.60
70916;BME280;58557;50.982;-3.222;2022-08-21T03:32:28;100898.97;;;18.46;53.45
70916;BME280;58557;50.982;-3.222;2022-08-21T03:34:53;100899.26;;;17.76;54.04
70916;BME280;58557;50.982;-3.222;2022-08-21T03:37:24;100896.76;;;17.90;54.30
70916;BME280;58557;50.982;-3.222;2022-08-21T03:39:47;100893.46;;;18.53;53.11
70916;BME280;58557;50.982;-3.222;2022-08-21T03:42:11;100888.42;;;17.65;55.15
70916;BME280;58557;50.982;-3.222;2022-08-21T03:44:36;100884.45;;;18.39;52.67
70916;BME280;58557;50.982;-3.222;2022-08-21T03:47:02;100880.39;;;18.00;53.16
70916;BME280;58557;50.982;-3.222;2022-08-21T03:49:32;100878.96;;;18.38;52.99
70916;BME280;58557;50.982;-3.222;2022-08-21T03:51:53;100875.36;;;17.94;53.70
70916;BME280;58557;50.982;-3.222;2022-08-21T03:54:19;100876.69;;;18.07;54.22
70916;BME280;58557;50.982;-3.222;2022-08-21T03:56:45;100874.64;;;17.87;54.06
70916;BME280;58557;50.982;-3.222;2022-08-21T03:59:15;100870.83;;;18.14;54.14
70916;BME280;58557;50.982;-3.222;2022-08-21T04:01:35;100872.31;;;17.49;55.59
70916;BME280;58557;50.982;-3.222;2022-08-21T04:04:02;100869.49;;;17.51;55.21
70916;BME280;58557;50.982;-3.222;2022-08-21T04:06:32;100869.46;;;17.59;55.20
70916;BME280;58557;50.982;-3.222;2022-08-21T04:08:52;100873.51;;;18.42;53.42
70916;BME280;58557;50.982;-3.222;2022-08-21T04:11:18;100875.53;;;18.27;53.56
70916;BME280;58557;50.982;-3.222;2022-08-21T04:13:49;100882.95;;;16.80;56.72
70916;BME280;58557;50.982;-3.222;2022-08-21T04:16:14;100886.25;;;18.17;54.15
70916;BME280;58557;50.982;-3.222;2022-08-21T04:18:35;100895.35;;;18.02;54.11
70916;BME280;58557;50.982;-3.222;2022-08-21T04:21:02;100903.91;;;18.27;53.21
70916;BME280;58557;50.982;-3.222;2022-08-21T04:23:26;100912.66;;;18.81;52.18
70916;BME280;58557;50.982;-3.222;2022-08-21T04:25:53;100919.38;;;16.90;56.76
70916;BME280;58557;50.982;-3.222;2022-08-21T04:28:17;100921.47;;;16.36;58.04
70916;BME280;58557;50.982;-3.222;2022-08-21T04:30:43;100927.28;;;16.13;59.15
70916;BME280;58557;50.982;-3.222;2022-08-21T04:33:13;100938.98;;;15.64;61.21
70916;BME280;58557;50.982;-3.222;2022-08-21T04:35:35;100937.26;;;17.06;57.99
70916;BME280;58557;50.982;-3.222;2022-08-21T04:38:04;100938.36;;;17.08;56.98
70916;BME280;58557;50.982;-3.222;2022-08-21T04:40:30;100940.00;;;17.36;55.57
70916;BME280;58557;50.982;-3.222;2022-08-21T04:42:53;100945.22;;;17.06;57.12
70916;BME280;58557;50.982;-3.222;2022-08-21T04:45:18;100940.09;;;16.22;59.03
70916;BME280;58557;50.982;-3.222;2022-08-21T04:47:48;100939.49;;;18.31;54.52
70916;BME280;58557;50.982;-3.222;2022-08-21T04:50:08;100937.88;;;17.14;56.62
70916;BME280;58557;50.982;-3.222;2022-08-21T04:52:33;100934.05;;;17.32;57.13
70916;BME280;58557;50.982;-3.222;2022-08-21T04:55:01;100929.84;;;17.59;56.12
70916;BME280;58557;50.982;-3.222;2022-08-21T04:57:25;100925.96;;;18.28;54.31
70916;BME280;58557;50.982;-3.222;2022-08-21T04:59:51;100925.35;;;18.73;52.43
70916;BME280;58557;50.982;-3.222;2022-08-21T05:02:17;100924.33;;;18.54;52.57
70916;BME280;58557;50.982;-3.222;2022-08-21T05:04:51;100919.61;;;18.33;52.85
70916;BME280;58557;50.982;-3.222;2022-08-21T05:07:10;100911.18;;;17.71;54.25
70916;BME280;58557;50.982;-3.222;2022-08-21T05:09:32;100910.89;;;17.99;54.84
70916;BME280;58557;50.982;-3.222;2022-08-21T05:11:57;100905.64;;;18.05;54.27
70916;BME280;58557;50.982;-3.222;2022-08-21T05:14:23;100903.11;;;18.29;53.24
70916;BME280;58557;50.982;-3.222;2022-08-21T05:16:49;100895.84;;;18.49;52.89
70916;BME280;58557;50.982;-3.222;2022-08-21T05:19:14;100886.52;;;18.21;53.63
70916;BME280;58557;50.982;-3.222;2022-08-21T05:21:42;100884.37;;;18.09;53.46
70916;BME280;58557;50.982;-3.222;2022-08-21T05:24:05;100889.30;;;18.08;54.54
70916;BME280;58557;50.982;-3.222;2022-08-21T05:26:31;100889.74;;;17.44;54.83
70916;BME280;58557;50.982;-3.222;2022-08-21T05:28:57;100890.53;;;18.18;54.78
70916;BME280;58557;50.982;-3.222;2022-08-21T05:31:27;100888.34;;;17.14;57.99
70916;BME280;58557;50.982;-3.222;2022-08-21T05:33:53;100885.61;;;16.91;57.73
70916;BME280;58557;50.982;-3.222;2022-08-21T05:36:14;100891.05;;;17.48;56.95
70916;BME280;58557;50.982;-3.222;2022-08-21T05:38:39;100892.23;;;18.46;55.15
70916;BME280;58557;50.982;-3.222;2022-08-21T05:41:10;100886.38;;;18.47;55.12
70916;BME280;58557;50.982;-3.222;2022-08-21T05:43:30;100890.71;;;17.56;57.31
70916;BME280;58557;50.982;-3.222;2022-08-21T05:46:01;100894.41;;;18.38;54.84
70916;BME280;58557;50.982;-3.222;2022-08-21T05:48:23;100882.76;;;17.97;55.18
70916;BME280;58557;50.982;-3.222;2022-08-21T05:50:49;100882.12;;;18.57;55.44
70916;BME280;58557;50.982;-3.222;2022-08-21T05:53:14;100875.52;;;18.08;55.74
70916;BME280;58557;50.982;-3.222;2022-08-21T05:55:44;100861.33;;;18.44;55.76
70916;BME280;58557;50.982;-3.222;2022-08-21T05:58:05;100839.81;;;18.47;56.88
70916;BME280;58557;50.982;-3.222;2022-08-21T06:00:30;100827.44;;;17.68;57.99
70916;BME280;58557;50.982;-3.222;2022-08-21T06:02:55;100820.83;;;16.65;61.00
70916;BME280;58557;50.982;-3.222;2022-08-21T06:05:21;100815.25;;;17.10;60.68
70916;BME280;58557;50.982;-3.222;2022-08-21T06:07:47;100812.82;;;16.71;61.48
70916;BME280;58557;50.982;-3.222;2022-08-21T06:10:18;100813.89;;;17.22;59.95
70916;BME280;58557;50.982;-3.222;2022-08-21T06:12:43;100819.67;;;18.09;58.03
70916;BME280;58557;50.982;-3.222;2022-08-21T06:15:09;100823.39;;;18.10;56.68
70916;BME280;58557;50.982;-3.222;2022-08-21T06:17:29;100842.06;;;17.72;58.31
70916;BME280;58557;50.982;-3.222;2022-08-21T06:20:00;100863.03;;;18.05;58.45
70916;BME280;58557;50.982;-3.222;2022-08-21T06:22:21;100870.39;;;16.46;62.56
70916;BME280;58557;50.982;-3.222;2022-08-21T06:24:47;100875.10;;;17.21;61.00
70916;BME280;58557;50.982;-3.222;2022-08-21T06:27:12;100881.36;;;17.24;61.67
70916;BME280;58557;50.982;-3.222;2022-08-21T06:29:38;100895.32;;;14.82;69.62
70916;BME280;58557;50.982;-3.222;2022-08-21T06:32:04;100908.80;;;14.09;74.80
70916;BME280;58557;50.982;-3.222;2022-08-21T06:34:29;100903.96;;;16.00;68.68
70916;BME280;58557;50.982;-3.222;2022-08-21T06:36:59;100905.67;;;15.32;69.99
70916;BME280;58557;50.982;-3.222;2022-08-21T06:39:20;100917.57;;;14.89;74.32
70916;BME280;58557;50.982;-3.222;2022-08-21T06:41:47;100922.97;;;15.53;70.52
70916;BME280;58557;50.982;-3.222;2022-08-21T06:44:11;100920.02;;;15.59;71.25
70916;BME280;58557;50.982;-3.222;2022-08-21T06:46:41;100917.37;;;16.73;67.18
70916;BME280;58557;50.982;-3.222;2022-08-21T06:49:04;100923.93;;;15.36;71.29
70916;BME280;58557;50.982;-3.222;2022-08-21T06:51:28;100927.75;;;15.94;70.75
70916;BME280;58557;50.982;-3.222;2022-08-21T06:53:58;100927.96;;;17.16;66.49
70916;BME280;58557;50.982;-3.222;2022-08-21T06:56:19;100924.41;;;16.48;67.61
70916;BME280;58557;50.982;-3.222;2022-08-21T06:58:45;100919.62;;;18.10;63.01
70916;BME280;58557;50.982;-3.222;2022-08-21T07:01:10;100913.95;;;17.31;64.00
70916;BME280;58557;50.982;-3.222;2022-08-21T07:03:38;100916.55;;;16.74;66.70
70916;BME280;58557;50.982;-3.222;2022-08-21T07:06:08;100913.74;;;16.08;69.53
70916;BME280;58557;50.982;-3.222;2022-08-21T07:08:33;100908.78;;;17.12;65.53
70916;BME280;58557;50.982;-3.222;2022-08-21T07:10:55;100901.97;;;17.02;66.41
70916;BME280;58557;50.982;-3.222;2022-08-21T07:13:24;100904.68;;;16.64;67.04
70916;BME280;58557;50.982;-3.222;2022-08-21T07:15:49;100907.22;;;16.25;67.71
70916;BME280;58557;50.982;-3.222;2022-08-21T07:18:10;100909.38;;;15.89;70.49
70916;BME280;58557;50.982;-3.222;2022-08-21T07:20:36;100911.66;;;17.11;67.28
70916;BME280;58557;50.982;-3.222;2022-08-21T07:23:04;100911.78;;;17.29;66.93
70916;BME280;58557;50.982;-3.222;2022-08-21T07:25:32;100918.28;;;17.06;66.00
70916;BME280;58557;50.982;-3.222;2022-08-21T07:27:53;100917.65;;;17.36;65.73
70916;BME280;58557;50.982;-3.222;2022-08-21T07:30:19;100912.84;;;16.88;65.90
70916;BME280;58557;50.982;-3.222;2022-08-21T07:32:49;100912.05;;;18.05;63.60
70916;BME280;58557;50.982;-3.222;2022-08-21T07:35:10;100917.59;;;17.03;65.39
70916;BME280;58557;50.982;-3.222;2022-08-21T07:37:40;100926.65;;;18.12;62.27
70916;BME280;58557;50.982;-3.222;2022-08-21T07:40:06;100922.18;;;17.26;65.08
70916;BME280;58557;50.982;-3.222;2022-08-21T07:42:27;100916.16;;;17.98;61.43
70916;BME280;58557;50.982;-3.222;2022-08-21T07:44:51;100916.16;;;18.38;61.15
70916;BME280;58557;50.982;-3.222;2022-08-21T07:47:22;100915.69;;;18.20;62.55
70916;BME280;58557;50.982;-3.222;2022-08-21T07:49:47;100920.18;;;17.21;64.34
70916;BME280;58557;50.982;-3.222;2022-08-21T07:52:10;100929.25;;;17.82;62.81
70916;BME280;58557;50.982;-3.222;2022-08-21T07:54:34;100925.38;;;17.38;62.88
70916;BME280;58557;50.982;-3.222;2022-08-21T07:56:59;100921.18;;;17.71;61.59
70916;BME280;58557;50.982;-3.222;2022-08-21T07:59:24;100920.39;;;19.00;59.50
70916;BME280;58557;50.982;-3.222;2022-08-21T08:01:50;100921.65;;;18.79;59.41
70916;BME280;58557;50.982;-3.222;2022-08-21T08:04:15;100914.62;;;19.10;57.63
70916;BME280;58557;50.982;-3.222;2022-08-21T08:06:41;100912.28;;;19.57;58.01
70916;BME280;58557;50.982;-3.222;2022-08-21T08:09:12;100917.45;;;19.38;58.47
70916;BME280;58557;50.982;-3.222;2022-08-21T08:11:39;100919.95;;;18.97;59.14
70916;BME280;58557;50.982;-3.222;2022-08-21T08:14:03;100912.76;;;19.27;59.41
70916;BME280;58557;50.982;-3.222;2022-08-21T08:16:29;100905.64;;;19.42;58.00
70916;BME280;58557;50.982;-3.222;2022-08-21T08:18:49;100904.17;;;19.62;56.92
70916;BME280;58557;50.982;-3.222;2022-08-21T08:21:16;100903.25;;;19.41;58.11
70916;BME280;58557;50.982;-3.222;2022-08-21T08:23:40;100897.78;;;19.16;56.65
70916;BME280;58557;50.982;-3.222;2022-08-21T08:26:07;100892.28;;;19.46;56.14
70916;BME280;58557;50.982;-3.222;2022-08-21T08:28:33;100894.36;;;19.83;56.71
70916;BME280;58557;50.982;-3.222;2022-08-21T08:30:58;100893.51;;;20.38;54.38
70916;BME280;58557;50.982;-3.222;2022-08-21T08:33:23;100889.10;;;20.71;54.06
70916;BME280;58557;50.982;-3.222;2022-08-21T08:35:50;100883.37;;;21.37;52.87
70916;BME280;58557;50.982;-3.222;2022-08-21T08:38:14;100883.48;;;21.15;52.05
70916;BME280;58557;50.982;-3.222;2022-08-21T08:40:46;100881.09;;;21.11;52.93
70916;BME280;58557;50.982;-3.222;2022-08-21T08:43:05;100878.34;;;21.32;53.16
70916;BME280;58557;50.982;-3.222;2022-08-21T08:45:34;100878.83;;;22.08;51.40
70916;BME280;58557;50.982;-3.222;2022-08-21T08:48:02;100882.45;;;22.29;50.23
70916;BME280;58557;50.982;-3.222;2022-08-21T08:50:26;100891.56;;;22.42;48.89
70916;BME280;58557;50.982;-3.222;2022-08-21T08:52:49;100895.34;;;22.24;47.67
70916;BME280;58557;50.982;-3.222;2022-08-21T08:55:21;100900.90;;;21.64;50.39
70916;BME280;58557;50.982;-3.222;2022-08-21T08:57:42;100896.48;;;21.12;52.01
70916;BME280;58557;50.982;-3.222;2022-08-21T09:00:07;100900.85;;;22.13;50.18
70916;BME280;58557;50.982;-3.222;2022-08-21T09:02:34;100898.58;;;22.13;50.72
70916;BME280;58557;50.982;-3.222;2022-08-21T09:04:55;100895.22;;;21.03;51.16
70916;BME280;58557;50.982;-3.222;2022-08-21T09:07:34;100898.12;;;22.78;47.45
70916;BME280;58557;50.982;-3.222;2022-08-21T09:09:59;100889.50;;;23.26;47.18
70916;BME280;58557;50.982;-3.222;2022-08-21T09:12:17;100893.39;;;24.27;45.16
70916;BME280;58557;50.982;-3.222;2022-08-21T09:14:48;100897.06;;;23.84;45.72
70916;BME280;58557;50.982;-3.222;2022-08-21T09:17:12;100899.79;;;24.53;44.18
70916;BME280;58557;50.982;-3.222;2022-08-21T09:19:39;100899.16;;;24.27;43.01
70916;BME280;58557;50.982;-3.222;2022-08-21T09:22:00;100904.10;;;24.88;42.93
70916;BME280;58557;50.982;-3.222;2022-08-21T09:24:29;100901.72;;;23.87;45.06
70916;BME280;58557;50.982;-3.222;2022-08-21T09:26:51;100902.96;;;23.21;42.33
70916;BME280;58557;50.982;-3.222;2022-08-21T09:29:10;100900.46;;;23.49;43.99
70916;BME280;58557;50.982;-3.222;2022-08-21T09:31:36;100901.45;;;23.72;43.97
70916;BME280;58557;50.982;-3.222;2022-08-21T09:34:02;100898.74;;;22.89;44.15
70916;BME280;58557;50.982;-3.222;2022-08-21T09:36:35;100898.56;;;23.52;44.28
70916;BME280;58557;50.982;-3.222;2022-08-21T09:38:53;100899.14;;;22.59;44.89
70916;BME280;58557;50.982;-3.222;2022-08-21T09:46:09;100889.53;;;22.50;46.78
70916;BME280;58557;50.982;-3.222;2022-08-21T09:48:41;100887.35;;;23.57;45.23
70916;BME280;58557;50.982;-3.222;2022-08-21T09:51:06;100896.37;;;21.84;48.57
70916;BME280;58557;50.982;-3.222;2022-08-21T09:53:26;100893.56;;;21.66;49.64
70916;BME280;58557;50.982;-3.222;2022-08-21T09:55:52;100897.47;;;23.68;46.59
70916;BME280;58557;50.982;-3.222;2022-08-21T09:58:20;100895.15;;;23.63;44.28
70916;BME280;58557;50.982;-3.222;2022-08-21T10:00:42;100896.85;;;23.25;45.82
70916;BME280;58557;50.982;-3.222;2022-08-21T10:03:15;100901.49;;;22.18;45.61
70916;BME280;58557;50.982;-3.222;2022-08-21T10:05:33;100903.01;;;22.26;45.25
70916;BME280;58557;50.982;-3.222;2022-08-21T10:08:02;100905.60;;;22.40;45.36
70916;BME280;58557;50.982;-3.222;2022-08-21T10:10:30;100905.21;;;22.77;45.01
70916;BME280;58557;50.982;-3.222;2022-08-21T10:12:58;100912.91;;;22.19;47.33
70916;BME280;58557;50.982;-3.222;2022-08-21T10:15:21;100912.93;;;22.28;47.41
70916;BME280;58557;50.982;-3.222;2022-08-21T10:17:44;100912.56;;;22.32;45.94
70916;BME280;58557;50.982;-3.222;2022-08-21T10:20:10;100906.61;;;22.13;46.40
70916;BME280;58557;50.982;-3.222;2022-08-21T10:22:39;100901.07;;;22.36;46.48
70916;BME280;58557;50.982;-3.222;2022-08-21T10:25:02;100898.62;;;21.80;45.63
70916;BME280;58557;50.982;-3.222;2022-08-21T10:27:29;100897.35;;;22.69;45.66
70916;BME280;58557;50.982;-3.222;2022-08-21T10:29:53;100899.05;;;21.87;45.46
70916;BME280;58557;50.982;-3.222;2022-08-21T10:32:23;100894.00;;;22.00;47.12
70916;BME280;58557;50.982;-3.222;2022-08-21T10:34:45;100887.82;;;23.34;44.35
70916;BME280;58557;50.982;-3.222;2022-08-21T10:37:16;100889.94;;;23.08;44.08
70916;BME280;58557;50.982;-3.222;2022-08-21T10:39:33;100887.67;;;20.95;49.16
70916;BME280;58557;50.982;-3.222;2022-08-21T10:42:08;100889.45;;;22.91;46.41
70916;BME280;58557;50.982;-3.222;2022-08-21T10:44:38;100889.30;;;23.83;43.55
70916;BME280;58557;50.982;-3.222;2022-08-21T10:46:52;100886.22;;;23.71;44.61
70916;BME280;58557;50.982;-3.222;2022-08-21T10:49:22;100888.33;;;24.86;41.52
70916;BME280;58557;50.982;-3.222;2022-08-21T10:51:42;100891.91;;;23.69;43.90
70916;BME280;58557;50.982;-3.222;2022-08-21T10:54:06;100896.37;;;21.83;46.71
70916;BME280;58557;50.982;-3.222;2022-08-21T10:56:29;100893.41;;;23.36;43.77
70916;BME280;58557;50.982;-3.222;2022-08-21T10:59:01;100896.75;;;22.03;46.26
70916;BME280;58557;50.982;-3.222;2022-08-21T11:01:23;100902.75;;;22.98;44.65
70916;BME280;58557;50.982;-3.222;2022-08-21T11:03:45;100905.60;;;23.82;43.30
70916;BME280;58557;50.982;-3.222;2022-08-21T11:06:13;100909.26;;;22.45;45.02
70916;BME280;58557;50.982;-3.222;2022-08-21T11:08:41;100906.55;;;23.45;44.08
70916;BME280;58557;50.982;-3.222;2022-08-21T11:11:07;100909.26;;;23.63;42.85
70916;BME280;58557;50.982;-3.222;2022-08-21T11:13:31;100912.03;;;23.23;44.56
70916;BME280;58557;50.982;-3.222;2022-08-21T11:15:56;100914.20;;;22.19;46.40
70916;BME280;58557;50.982;-3.222;2022-08-21T11:18:22;100910.96;;;21.76;46.84
70916;BME280;58557;50.982;-3.222;2022-08-21T11:20:46;100913.15;;;22.23;46.87
70916;BME280;58557;50.982;-3.222;2022-08-21T11:23:11;100914.58;;;22.60;46.32
70916;BME280;58557;50.982;-3.222;2022-08-21T11:25:41;100910.24;;;22.72;45.06
70916;BME280;58557;50.982;-3.222;2022-08-21T11:28:03;100908.28;;;22.26;46.95
70916;BME280;58557;50.982;-3.222;2022-08-21T11:30:24;100903.22;;;21.73;46.52
70916;BME280;58557;50.982;-3.222;2022-08-21T11:33:01;100902.69;;;22.52;46.05
70916;BME280;58557;50.982;-3.222;2022-08-21T11:35:20;100903.16;;;22.64;45.50
70916;BME280;58557;50.982;-3.222;2022-08-21T11:37:55;100905.21;;;22.60;45.84
70916;BME280;58557;50.982;-3.222;2022-08-21T11:40:11;100904.98;;;22.60;47.01
70916;BME280;58557;50.982;-3.222;2022-08-21T11:42:37;100897.83;;;23.08;45.43
70916;BME280;58557;50.982;-3.222;2022-08-21T11:45:03;100895.19;;;21.90;47.60
70916;BME280;58557;50.982;-3.222;2022-08-21T11:47:30;100893.27;;;22.85;45.52
70916;BME280;58557;50.982;-3.222;2022-08-21T11:49:59;100885.60;;;23.30;45.40
70916;BME280;58557;50.982;-3.222;2022-08-21T11:52:18;100885.70;;;23.68;44.27
70916;BME280;58557;50.982;-3.222;2022-08-21T11:54:45;100892.14;;;22.93;44.56
70916;BME280;58557;50.982;-3.222;2022-08-21T11:57:08;100890.70;;;24.08;42.31
70916;BME280;58557;50.982;-3.222;2022-08-21T11:59:35;100893.80;;;24.94;42.51
70916;BME280;58557;50.982;-3.222;2022-08-21T12:01:54;100893.30;;;24.14;41.31
70916;BME280;58557;50.982;-3.222;2022-08-21T12:04:27;100892.56;;;24.90;41.40
70916;BME280;58557;50.982;-3.222;2022-08-21T12:06:50;100894.30;;;24.90;41.13
70916;BME280;58557;50.982;-3.222;2022-08-21T12:11:46;100879.63;;;24.58;40.52
70916;BME280;58557;50.982;-3.222;2022-08-21T12:14:12;100873.95;;;24.81;40.40
70916;BME280;58557;50.982;-3.222;2022-08-21T12:16:36;100877.40;;;24.99;39.70
70916;BME280;58557;50.982;-3.222;2022-08-21T12:19:03;100878.33;;;23.26;41.70
70916;BME280;58557;50.982;-3.222;2022-08-21T12:21:22;100884.27;;;22.35;45.26
70916;BME280;58557;50.982;-3.222;2022-08-21T12:23:46;100886.19;;;22.92;44.31
70916;BME280;58557;50.982;-3.222;2022-08-21T12:26:23;100884.72;;;22.35;43.62
70916;BME280;58557;50.982;-3.222;2022-08-21T12:28:35;100889.49;;;22.46;44.64
70916;BME280;58557;50.982;-3.222;2022-08-21T12:31:00;100890.22;;;22.79;44.57
70916;BME280;58557;50.982;-3.222;2022-08-21T12:33:29;100883.11;;;23.97;42.51
70916;BME280;58557;50.982;-3.222;2022-08-21T12:35:53;100882.49;;;21.66;45.73
70916;BME280;58557;50.982;-3.222;2022-08-21T12:38:26;100880.53;;;23.05;43.94